createdAt,value
2023-04-11T00:00:06.609Z,16.93
2023-04-11T00:02:40.134Z,16.60
2023-04-11T00:05:08.844Z,17.73
2023-04-11T00:07:36.705Z,18.20
2023-04-11T00:10:07.195Z,18.10
2023-04-11T00:12:36.482Z,16.87
2023-04-11T00:15:04.988Z,19.67
2023-04-11T00:17:33.701Z,16.70
2023-04-11T00:20:07.614Z,14.63
2023-04-11T00:22:39.074Z,18.20
2023-04-11T00:25:07.508Z,16.10
2023-04-11T00:27:36.754Z,18.57
2023-04-11T00:30:05.771Z,17.47
2023-04-11T00:32:33.601Z,17.20
2023-04-11T00:35:01.804Z,16.93
2023-04-11T00:37:31.875Z,17.20
2023-04-11T00:39:59.689Z,17.53
2023-04-11T00:42:27.536Z,17.80
2023-04-11T00:44:57.374Z,15.80
2023-04-11T00:47:25.710Z,17.47
2023-04-11T00:49:53.465Z,15.47
2023-04-11T00:52:21.847Z,15.83
2023-04-11T00:54:49.644Z,17.63
2023-04-11T00:57:17.406Z,16.40
2023-04-11T00:59:48.149Z,17.10
2023-04-11T01:02:18.222Z,16.83
2023-04-11T01:04:47.260Z,18.13
2023-04-11T01:07:15.296Z,15.90
2023-04-11T01:09:43.325Z,14.87
2023-04-11T01:12:11.926Z,17.30
2023-04-11T01:14:41.187Z,14.77
2023-04-11T01:17:12.969Z,16.00
2023-04-11T01:19:42.608Z,15.70
2023-04-11T01:22:14.837Z,17.87
2023-04-11T01:24:44.404Z,15.90
2023-04-11T01:27:12.248Z,15.00
2023-04-11T01:29:40.161Z,15.67
2023-04-11T01:32:08.391Z,16.87
2023-04-11T01:34:36.945Z,14.83
2023-04-11T01:37:05.210Z,17.00
2023-04-11T01:39:32.980Z,16.43
2023-04-11T01:42:03.683Z,19.70
2023-04-11T01:44:33.476Z,16.17
2023-04-11T01:47:04.760Z,14.93
2023-04-11T01:49:33.789Z,15.30
2023-04-11T01:52:01.553Z,15.23
2023-04-11T01:54:29.494Z,16.10
2023-04-11T01:56:57.562Z,17.17
2023-04-11T01:59:26.907Z,14.97
2023-04-11T02:01:55.083Z,15.70
2023-04-11T02:04:23.287Z,15.10
2023-04-11T02:06:51.121Z,14.63
2023-04-11T02:09:20.617Z,15.77
2023-04-11T02:11:48.835Z,15.70
2023-04-11T02:14:20.286Z,16.50
2023-04-11T02:16:53.053Z,15.73
2023-04-11T02:19:22.273Z,14.37
2023-04-11T02:21:50.485Z,16.13
2023-04-11T02:24:18.505Z,16.07
2023-04-11T02:26:46.712Z,16.13
2023-04-11T02:29:14.477Z,16.33
2023-04-11T02:31:42.802Z,16.70
2023-04-11T02:34:11.962Z,16.90
2023-04-11T02:36:39.838Z,17.53
2023-04-11T02:39:07.765Z,14.67
2023-04-11T02:41:35.570Z,15.97
2023-04-11T02:44:03.362Z,19.43
2023-04-11T02:46:31.395Z,18.80
2023-04-11T02:49:00.142Z,16.87
2023-04-11T02:51:29.927Z,17.90
2023-04-11T02:53:58.682Z,17.67
2023-04-11T02:56:27.109Z,17.40
2023-04-11T02:58:58.119Z,21.50
2023-04-11T03:01:27.530Z,15.97
2023-04-11T03:03:56.597Z,17.60
2023-04-11T03:06:33.423Z,17.13
2023-04-11T03:09:02.226Z,17.67
2023-04-11T03:11:30.085Z,15.50
2023-04-11T03:13:58.627Z,15.10
2023-04-11T03:16:28.181Z,15.53
2023-04-11T03:18:56.280Z,16.57
2023-04-11T03:21:24.848Z,15.20
2023-04-11T03:23:54.160Z,16.47
2023-04-11T03:26:27.359Z,15.07
2023-04-11T03:28:59.239Z,15.90
2023-04-11T03:31:31.282Z,14.37
2023-04-11T03:33:59.797Z,15.67
2023-04-11T03:36:28.048Z,17.30
2023-04-11T03:38:58.009Z,17.27
2023-04-11T03:41:26.266Z,13.90
2023-04-11T03:43:54.094Z,20.83
2023-04-11T03:46:22.388Z,15.10
2023-04-11T03:48:50.181Z,15.80
2023-04-11T03:51:19.973Z,18.00
2023-04-11T03:54:01.912Z,16.57
2023-04-11T03:56:35.498Z,17.00
2023-04-11T03:59:03.808Z,17.83
2023-04-11T04:01:41.774Z,18.40
2023-04-11T04:04:10.868Z,19.27
2023-04-11T04:06:41.756Z,18.17
2023-04-11T04:09:12.240Z,16.53
2023-04-11T04:11:59.391Z,17.27
2023-04-11T04:14:38.853Z,21.60
2023-04-11T04:17:08.241Z,20.17
2023-04-11T04:19:36.013Z,20.10
2023-04-11T04:22:04.271Z,17.73
2023-04-11T04:24:39.432Z,18.40
2023-04-11T04:27:19.493Z,20.87
2023-04-11T04:29:58.062Z,19.13
2023-04-11T04:32:41.257Z,19.30
2023-04-11T04:35:14.035Z,21.03
2023-04-11T04:37:45.792Z,21.17
2023-04-11T04:40:39.920Z,28.83
2023-04-11T04:43:11.782Z,20.50
2023-04-11T04:46:12.034Z,29.23
2023-04-11T04:48:49.706Z,20.80
2023-04-11T04:51:18.257Z,25.70
2023-04-11T04:53:46.482Z,24.00
2023-04-11T04:56:40.746Z,25.53
2023-04-11T04:59:14.559Z,24.03
2023-04-11T05:01:44.448Z,24.33
2023-04-11T05:04:12.862Z,31.47
2023-04-11T05:06:48.152Z,25.80
2023-04-11T05:09:16.914Z,24.23
2023-04-11T05:11:46.707Z,27.60
2023-04-11T05:14:15.993Z,22.97
2023-04-11T05:16:44.085Z,23.50
2023-04-11T05:19:11.916Z,28.33
2023-04-11T05:21:44.058Z,28.67
2023-04-11T05:24:13.850Z,25.53
2023-04-11T05:26:41.817Z,28.03
2023-04-11T05:29:11.890Z,28.00
2023-04-11T05:31:39.862Z,32.10
2023-04-11T05:34:10.600Z,25.50
2023-04-11T05:36:39.340Z,29.90
2023-04-11T05:39:07.055Z,27.50
2023-04-11T05:41:34.778Z,38.53
2023-04-11T05:44:05.135Z,27.10
2023-04-11T05:46:36.611Z,28.17
2023-04-11T05:49:04.876Z,27.57
2023-04-11T05:51:32.840Z,42.07
2023-04-11T05:54:01.108Z,26.60
2023-04-11T05:56:29.076Z,29.07
2023-04-11T05:58:57.210Z,27.70
2023-04-11T06:01:26.132Z,27.60
2023-04-11T06:03:55.702Z,31.90
2023-04-11T06:06:24.515Z,29.80
2023-04-11T06:08:52.288Z,30.00
2023-04-11T06:11:20.732Z,31.23
2023-04-11T06:13:49.068Z,29.53
2023-04-11T06:16:16.901Z,41.50
2023-04-11T06:18:44.682Z,33.73
2023-04-11T06:21:14.871Z,33.60
2023-04-11T06:23:42.666Z,31.87
2023-04-11T06:26:11.485Z,35.10
2023-04-11T06:28:39.627Z,35.20
2023-04-11T06:31:09.705Z,32.70
2023-04-11T06:33:38.989Z,35.50
2023-04-11T06:36:07.229Z,37.37
2023-04-11T06:38:38.092Z,37.50
2023-04-11T06:41:06.535Z,36.80
2023-04-11T06:43:34.563Z,36.83
2023-04-11T06:46:02.558Z,33.77
2023-04-11T06:48:30.342Z,31.23
2023-04-11T06:50:58.405Z,32.53
2023-04-11T06:53:26.142Z,33.80
2023-04-11T06:55:55.440Z,37.47
2023-04-11T06:58:23.501Z,33.27
2023-04-11T07:00:51.468Z,30.87
2023-04-11T07:03:19.825Z,33.37
2023-04-11T07:05:48.115Z,35.27
2023-04-11T07:08:16.322Z,32.97
2023-04-11T07:10:45.700Z,32.73
2023-04-11T07:13:15.158Z,32.10
2023-04-11T07:15:43.624Z,32.83
2023-04-11T07:18:11.414Z,34.00
2023-04-11T07:20:40.632Z,35.53
2023-04-11T07:23:08.836Z,42.53
2023-04-11T07:25:37.004Z,38.57
2023-04-11T07:28:08.412Z,35.63
2023-04-11T07:30:37.545Z,34.33
2023-04-11T07:33:05.802Z,34.60
2023-04-11T07:35:34.904Z,38.67
2023-04-11T07:38:03.458Z,32.27
2023-04-11T07:40:31.686Z,34.93
2023-04-11T07:43:01.745Z,34.87
2023-04-11T07:45:29.635Z,40.47
2023-04-11T07:47:58.816Z,34.80
2023-04-11T07:50:26.868Z,38.03
2023-04-11T07:52:55.802Z,37.07
2023-04-11T07:55:23.649Z,35.80
2023-04-11T07:57:51.741Z,34.40
2023-04-11T08:00:20.346Z,30.10
2023-04-11T08:02:48.194Z,33.00
2023-04-11T08:05:17.772Z,33.27
2023-04-11T08:07:45.513Z,30.63
2023-04-11T08:10:13.508Z,35.13
2023-04-11T08:12:41.398Z,30.67
2023-04-11T08:15:09.516Z,31.43
2023-04-11T08:17:38.573Z,29.63
2023-04-11T08:20:09.434Z,28.70
2023-04-11T08:22:38.997Z,33.47
2023-04-11T08:25:07.563Z,27.23
2023-04-11T08:27:35.460Z,30.40
2023-04-11T08:30:05.994Z,25.43
2023-04-11T08:32:34.193Z,22.90
2023-04-11T08:35:02.036Z,19.27
2023-04-11T08:37:31.057Z,16.50
2023-04-11T08:40:00.168Z,18.13
2023-04-11T08:42:28.947Z,15.37
2023-04-11T08:44:57.119Z,17.83
2023-04-11T08:47:25.487Z,19.80
2023-04-11T08:49:53.863Z,14.57
2023-04-11T08:52:21.962Z,16.70
2023-04-11T08:54:50.293Z,11.77
2023-04-11T08:57:27.811Z,13.57
2023-04-11T08:59:56.566Z,15.20
2023-04-11T09:02:24.434Z,16.53
2023-04-11T09:04:52.552Z,15.33
2023-04-11T09:07:20.330Z,16.70
2023-04-11T09:09:48.051Z,14.13
2023-04-11T09:12:15.900Z,14.20
2023-04-11T09:14:45.086Z,17.13
2023-04-11T09:17:14.405Z,16.13
2023-04-11T09:19:43.122Z,14.67
2023-04-11T09:22:11.122Z,15.43
2023-04-11T09:24:39.104Z,15.30
2023-04-11T09:27:08.786Z,15.87
2023-04-11T09:29:38.174Z,18.17
2023-04-11T09:32:08.049Z,12.03
2023-04-11T09:34:37.617Z,12.33
2023-04-11T09:37:05.737Z,21.10
2023-04-11T09:39:34.200Z,10.00
2023-04-11T09:42:03.186Z,13.03
2023-04-11T09:44:38.258Z,12.10
2023-04-11T09:47:09.641Z,10.93
2023-04-11T09:49:38.071Z,16.60
2023-04-11T09:52:06.578Z,14.83
2023-04-11T09:54:34.587Z,11.27
2023-04-11T09:57:03.971Z,10.13
2023-04-11T09:59:32.919Z,8.73
2023-04-11T10:02:01.798Z,12.23
2023-04-11T10:04:34.333Z,9.50
2023-04-11T10:07:07.530Z,10.37
2023-04-11T10:09:38.927Z,11.47
2023-04-11T10:12:07.023Z,11.30
2023-04-11T10:14:44.722Z,11.47
2023-04-11T10:17:14.609Z,20.50
2023-04-11T10:19:45.329Z,7.40
2023-04-11T10:22:34.425Z,9.17
2023-04-11T10:25:17.715Z,12.23
2023-04-11T10:27:49.093Z,11.23
2023-04-11T10:30:17.113Z,14.67
2023-04-11T10:32:59.983Z,10.23
2023-04-11T10:35:30.889Z,9.60
2023-04-11T10:37:58.735Z,11.27
2023-04-11T10:40:27.125Z,10.20
2023-04-11T10:42:54.938Z,8.50
2023-04-11T10:45:24.468Z,7.50
2023-04-11T10:48:03.640Z,8.83
2023-04-11T10:50:37.845Z,6.03
2023-04-11T10:53:06.606Z,13.40
2023-04-11T10:55:43.617Z,10.47
2023-04-11T10:58:14.117Z,10.33
2023-04-11T11:01:00.820Z,9.07
2023-04-11T11:03:30.768Z,9.17
2023-04-11T11:06:00.950Z,12.27
2023-04-11T11:08:30.355Z,9.67
2023-04-11T11:11:01.063Z,9.60
2023-04-11T11:13:39.463Z,6.20
2023-04-11T11:16:07.846Z,7.83
2023-04-11T11:18:35.923Z,7.80
2023-04-11T11:21:07.401Z,7.73
2023-04-11T11:23:37.488Z,6.60
2023-04-11T11:26:06.647Z,7.13
2023-04-11T11:28:34.350Z,13.20
2023-04-11T11:31:04.040Z,8.37
2023-04-11T11:33:32.568Z,10.03
2023-04-11T11:36:01.561Z,6.10
2023-04-11T11:38:31.375Z,9.00
2023-04-11T11:41:00.037Z,8.70
2023-04-11T11:43:28.363Z,9.43
2023-04-11T11:46:09.792Z,7.60
2023-04-11T11:48:38.396Z,7.73
2023-04-11T11:51:07.074Z,7.27
2023-04-11T11:53:36.858Z,7.53
2023-04-11T11:56:14.832Z,10.70
2023-04-11T11:58:47.633Z,8.63
2023-04-11T12:01:18.275Z,7.10
2023-04-11T12:03:48.421Z,6.50
2023-04-11T12:06:17.225Z,7.20
2023-04-11T12:08:50.344Z,7.00
2023-04-11T12:11:18.646Z,6.60
2023-04-11T12:13:46.701Z,7.47
2023-04-11T12:16:16.158Z,8.30
2023-04-11T12:18:45.199Z,7.60
2023-04-11T12:21:13.360Z,6.57
2023-04-11T12:23:41.118Z,8.40
2023-04-11T12:26:10.406Z,7.40
2023-04-11T12:28:38.317Z,7.80
2023-04-11T12:31:06.346Z,7.47
2023-04-11T12:33:34.139Z,5.53
2023-04-11T12:36:02.806Z,8.00
2023-04-11T12:38:30.565Z,11.07
2023-04-11T12:41:19.893Z,7.23
2023-04-11T12:43:48.078Z,5.40
2023-04-11T12:46:17.327Z,8.70
2023-04-11T12:48:45.598Z,7.73
2023-04-11T12:51:13.544Z,7.97
2023-04-11T12:53:41.358Z,7.27
2023-04-11T12:56:09.648Z,5.70
2023-04-11T12:58:38.070Z,8.17
2023-04-11T13:01:07.607Z,6.07
2023-04-11T13:03:38.449Z,7.47
2023-04-11T13:06:06.547Z,8.93
2023-04-11T13:08:34.297Z,7.10
2023-04-11T13:11:02.301Z,7.83
2023-04-11T13:13:30.081Z,8.50
2023-04-11T13:16:01.302Z,7.97
2023-04-11T13:18:30.609Z,7.40
2023-04-11T13:20:58.504Z,6.20
2023-04-11T13:23:26.825Z,7.20
2023-04-11T13:25:55.269Z,5.03
2023-04-11T13:28:22.991Z,3.43
2023-04-11T13:30:50.694Z,3.93
2023-04-11T13:33:18.783Z,4.60
2023-04-11T13:35:47.889Z,6.30
2023-04-11T13:38:16.174Z,6.83
2023-04-11T13:40:44.119Z,3.77
2023-04-11T13:43:11.973Z,5.50
2023-04-11T13:45:40.297Z,5.53
2023-04-11T13:48:08.536Z,5.77
2023-04-11T13:50:36.336Z,6.00
2023-04-11T13:53:05.716Z,5.40
2023-04-11T13:55:33.553Z,5.17
2023-04-11T13:58:01.390Z,4.13
2023-04-11T14:00:29.489Z,5.80
2023-04-11T14:02:57.378Z,9.67
2023-04-11T14:05:26.979Z,9.57
2023-04-11T14:07:54.930Z,8.63
2023-04-11T14:10:24.395Z,5.00
2023-04-11T14:12:52.248Z,5.67
2023-04-11T14:15:21.934Z,6.03
2023-04-11T14:17:49.951Z,4.10
2023-04-11T14:20:17.806Z,4.70
2023-04-11T14:22:46.179Z,10.33
2023-04-11T14:25:16.046Z,6.00
2023-04-11T14:27:45.648Z,5.93
2023-04-11T14:30:13.917Z,6.40
2023-04-11T14:32:41.985Z,4.80
2023-04-11T14:35:10.051Z,11.00
2023-04-11T14:37:38.185Z,6.97
2023-04-11T14:40:08.216Z,5.00
2023-04-11T14:42:36.009Z,6.93
2023-04-11T14:45:05.787Z,7.27
2023-04-11T14:47:33.977Z,7.77
2023-04-11T14:50:01.813Z,7.60
2023-04-11T14:52:29.753Z,5.20
2023-04-11T14:54:57.711Z,8.70
2023-04-11T14:57:25.515Z,9.03
2023-04-11T14:59:53.247Z,7.90
2023-04-11T15:02:22.797Z,12.30
2023-04-11T15:04:53.479Z,10.10
2023-04-11T15:07:22.414Z,9.67
2023-04-11T15:09:50.128Z,7.63
2023-04-11T15:12:18.192Z,10.70
2023-04-11T15:14:46.437Z,11.80
2023-04-11T15:17:14.226Z,10.17
2023-04-11T15:19:43.327Z,11.87
2023-04-11T15:22:11.666Z,10.93
2023-04-11T15:24:39.404Z,8.87
2023-04-11T15:27:07.428Z,8.50
2023-04-11T15:29:36.653Z,18.53
2023-04-11T15:32:04.490Z,7.90
2023-04-11T15:34:32.220Z,8.30
2023-04-11T15:37:01.605Z,7.40
2023-04-11T15:39:29.342Z,10.40
2023-04-11T15:41:57.609Z,9.00
2023-04-11T15:44:25.386Z,7.10
2023-04-11T15:46:53.202Z,7.23
2023-04-11T15:49:21.078Z,6.80
2023-04-11T15:51:49.389Z,6.90
2023-04-11T15:54:18.508Z,6.17
2023-04-11T15:56:46.328Z,5.03
2023-04-11T15:59:15.946Z,5.40
2023-04-11T16:01:44.719Z,5.43
2023-04-11T16:04:12.621Z,5.13
2023-04-11T16:06:40.907Z,6.40
2023-04-11T16:09:08.717Z,4.90
2023-04-11T16:11:40.104Z,3.93
2023-04-11T16:14:08.201Z,3.90
2023-04-11T16:16:36.158Z,5.97
2023-04-11T16:19:04.252Z,3.83
2023-04-11T16:21:32.338Z,6.87
2023-04-11T16:24:00.180Z,7.27
2023-04-11T16:26:28.065Z,6.50
2023-04-11T16:28:57.554Z,4.30
2023-04-11T16:31:25.488Z,5.57
2023-04-11T16:33:55.101Z,8.77
2023-04-11T16:36:24.669Z,9.60
2023-04-11T16:38:52.464Z,6.17
2023-04-11T16:41:20.683Z,5.97
2023-04-11T16:43:48.825Z,5.80
2023-04-11T16:46:17.954Z,6.57
2023-04-11T16:48:45.733Z,4.63
2023-04-11T16:51:13.826Z,5.40
2023-04-11T16:53:41.862Z,6.40
2023-04-11T16:56:10.518Z,7.80
2023-04-11T16:58:38.872Z,5.20
2023-04-11T17:01:07.048Z,8.80
2023-04-11T17:03:38.771Z,9.53
2023-04-11T17:06:13.467Z,10.13
2023-04-11T17:09:04.388Z,6.30
2023-04-11T17:11:36.176Z,7.90
2023-04-11T17:14:05.202Z,6.30
2023-04-11T17:16:33.011Z,5.77
2023-04-11T17:19:02.499Z,8.67
2023-04-11T17:21:31.914Z,9.53
2023-04-11T17:24:00.472Z,8.90
2023-04-11T17:26:28.515Z,6.90
2023-04-11T17:28:57.048Z,9.47
2023-04-11T17:31:27.544Z,6.10
2023-04-11T17:33:55.583Z,7.90
2023-04-11T17:36:25.341Z,9.43
2023-04-11T17:38:54.701Z,7.27
2023-04-11T17:41:22.782Z,5.87
2023-04-11T17:43:50.892Z,7.33
2023-04-11T17:46:20.227Z,7.17
2023-04-11T17:48:48.271Z,5.90
2023-04-11T17:51:16.326Z,6.50
2023-04-11T17:53:45.648Z,7.47
2023-04-11T17:56:14.427Z,10.50
2023-04-11T17:58:45.107Z,11.03
2023-04-11T18:01:13.050Z,8.43
2023-04-11T18:03:41.103Z,7.17
2023-04-11T18:06:09.251Z,9.03
2023-04-11T18:11:12.744Z,7.67
2023-04-11T18:13:40.502Z,8.63
2023-04-11T18:16:08.366Z,11.00
2023-04-11T18:18:36.849Z,10.77
2023-04-11T18:21:07.072Z,10.27
2023-04-11T18:23:35.821Z,9.10
2023-04-11T18:26:03.763Z,6.83
2023-04-11T18:28:32.961Z,7.83
2023-04-11T18:31:01.575Z,7.57
2023-04-11T18:33:29.845Z,7.10
2023-04-11T18:35:57.677Z,7.23
2023-04-11T18:38:25.729Z,9.43
2023-04-11T18:40:56.171Z,5.47
2023-04-11T18:43:24.906Z,6.33
2023-04-11T18:45:54.304Z,7.43
2023-04-11T18:48:22.121Z,7.20
2023-04-11T18:50:58.001Z,7.10
2023-04-11T18:53:28.228Z,9.60
2023-04-11T18:55:56.158Z,12.80
2023-04-11T18:58:26.016Z,11.80
2023-04-11T19:00:55.541Z,5.20
2023-04-11T19:03:24.066Z,6.80
2023-04-11T19:05:52.977Z,6.33
2023-04-11T19:08:21.288Z,7.30
2023-04-11T19:10:49.215Z,8.23
2023-04-11T19:13:17.014Z,7.73
2023-04-11T19:15:46.389Z,10.00
2023-04-11T19:18:15.970Z,8.27
2023-04-11T19:20:44.006Z,8.13
2023-04-11T19:23:11.705Z,13.93
2023-04-11T19:25:40.784Z,8.57
2023-04-11T19:28:08.540Z,9.13
2023-04-11T19:30:36.838Z,7.40
2023-04-11T19:33:05.281Z,8.03
2023-04-11T19:35:34.644Z,8.40
2023-04-11T19:38:05.932Z,8.60
2023-04-11T19:40:35.040Z,9.23
2023-04-11T19:43:03.484Z,5.37
2023-04-11T19:45:32.424Z,9.77
2023-04-11T19:48:00.573Z,10.87
2023-04-11T19:50:28.481Z,10.80
2023-04-11T19:52:57.997Z,5.70
2023-04-11T19:55:27.393Z,7.90
2023-04-11T19:57:55.325Z,10.23
2023-04-11T20:00:23.515Z,7.33
2023-04-11T20:02:51.380Z,8.13
2023-04-11T20:05:21.607Z,6.30
2023-04-11T20:07:49.504Z,10.30
2023-04-11T20:10:18.733Z,7.60
2023-04-11T20:12:46.756Z,9.03
2023-04-11T20:15:15.002Z,10.00
2023-04-11T20:17:45.226Z,11.60
2023-04-11T20:20:15.914Z,6.10
2023-04-11T20:22:45.195Z,9.90
2023-04-11T20:25:13.336Z,7.10
2023-04-11T20:27:43.424Z,9.97
2023-04-11T20:30:12.141Z,8.23
2023-04-11T20:32:40.467Z,9.00
2023-04-11T20:35:10.252Z,13.17
2023-04-11T20:37:39.891Z,11.13
2023-04-11T20:40:10.362Z,9.10
2023-04-11T20:42:39.978Z,8.10
2023-04-11T20:45:10.970Z,10.30
2023-04-11T20:47:39.009Z,8.33
2023-04-11T20:50:07.335Z,6.40
2023-04-11T20:52:35.456Z,9.03
2023-04-11T20:55:03.655Z,7.37
2023-04-11T20:57:33.576Z,12.83
2023-04-11T21:00:02.233Z,17.53
2023-04-11T21:02:32.436Z,11.27
2023-04-11T21:05:00.401Z,11.17
2023-04-11T21:07:28.301Z,6.60
2023-04-11T21:09:56.794Z,5.80
2023-04-11T21:12:24.601Z,9.33
2023-04-11T21:14:52.814Z,5.93
2023-04-11T21:17:21.486Z,7.23
2023-04-11T21:19:50.844Z,7.17
2023-04-11T21:22:19.431Z,9.47
2023-04-11T21:24:47.162Z,5.83
2023-04-11T21:27:14.924Z,11.77
2023-04-11T21:29:42.832Z,12.53
2023-04-11T21:32:10.762Z,8.57
2023-04-11T21:34:38.713Z,8.83
2023-04-11T21:37:08.244Z,11.93
2023-04-11T21:39:36.065Z,6.40
2023-04-11T21:42:03.845Z,6.60
2023-04-11T21:44:31.730Z,8.23
2023-04-11T21:46:59.675Z,6.90
2023-04-11T21:49:27.524Z,9.53
2023-04-11T21:51:57.558Z,8.07
2023-04-11T21:54:26.755Z,9.50
2023-04-11T21:56:54.657Z,8.77
2023-04-11T21:59:23.311Z,8.60
2023-04-11T22:01:51.395Z,12.67
2023-04-11T22:04:19.712Z,11.03
2023-04-11T22:06:47.538Z,7.43
2023-04-11T22:09:15.425Z,8.73
2023-04-11T22:11:44.709Z,9.10
2023-04-11T22:14:16.192Z,8.03
2023-04-11T22:16:48.818Z,8.70
2023-04-11T22:19:17.860Z,8.30
2023-04-11T22:21:50.494Z,5.10
2023-04-11T22:24:18.781Z,13.80
2023-04-11T22:26:48.946Z,12.27
2023-04-11T22:29:18.329Z,7.57
2023-04-11T22:31:47.587Z,9.03
2023-04-11T22:34:16.350Z,6.13
2023-04-11T22:36:44.142Z,5.90
2023-04-11T22:39:12.184Z,7.77
2023-04-11T22:41:39.809Z,9.10
2023-04-11T22:44:09.255Z,10.20
2023-04-11T22:46:38.458Z,8.67
2023-04-11T22:49:06.738Z,6.67
2023-04-11T22:51:34.672Z,14.17
2023-04-11T22:54:02.563Z,9.07
2023-04-11T22:56:30.403Z,8.43
2023-04-11T22:58:58.700Z,7.53
2023-04-11T23:01:28.266Z,9.07
2023-04-11T23:03:56.414Z,10.87
2023-04-11T23:06:24.984Z,12.80
2023-04-11T23:08:53.900Z,8.27
2023-04-11T23:11:21.866Z,8.67
2023-04-11T23:13:49.923Z,12.40
2023-04-11T23:16:18.250Z,11.43
2023-04-11T23:18:47.360Z,7.80
2023-04-11T23:21:15.610Z,8.30
2023-04-11T23:23:43.914Z,7.63
2023-04-11T23:26:18.097Z,8.03
2023-04-11T23:28:45.970Z,6.40
2023-04-11T23:31:13.843Z,15.03
2023-04-11T23:33:41.703Z,10.40
2023-04-11T23:36:11.939Z,13.97
2023-04-11T23:38:40.114Z,9.40
2023-04-11T23:41:08.194Z,6.10
2023-04-11T23:43:36.778Z,11.20
2023-04-11T23:46:04.536Z,8.57
2023-04-11T23:48:32.553Z,8.67
2023-04-11T23:51:00.476Z,12.30
2023-04-11T23:53:33.686Z,7.63
2023-04-11T23:56:02.175Z,7.63
2023-04-11T23:58:29.897Z,7.57
